createdAt,value
2022-08-26T00:02:34.001Z,87.82
2022-08-26T00:07:35.724Z,87.71
2022-08-26T00:12:40.580Z,87.89
2022-08-26T00:17:43.217Z,87.93
2022-08-26T00:22:45.193Z,88.03
2022-08-26T00:27:47.755Z,87.81
2022-08-26T00:32:50.421Z,87.63
2022-08-26T00:37:52.110Z,87.85
2022-08-26T00:42:54.324Z,87.94
2022-08-26T00:48:00.733Z,88.31
2022-08-26T00:53:05.120Z,88.28
2022-08-26T00:58:08.700Z,88.39
2022-08-26T01:03:12.795Z,87.88
2022-08-26T01:08:14.489Z,87.92
2022-08-26T01:13:17.035Z,87.64
2022-08-26T01:18:23.223Z,87.82
2022-08-26T01:23:29.255Z,88.13
2022-08-26T01:28:33.940Z,88.11
2022-08-26T01:34:01.008Z,88.25
2022-08-26T01:39:03.768Z,87.99
2022-08-26T01:44:09.976Z,87.65
2022-08-26T01:49:12.190Z,87.52
2022-08-26T01:54:14.150Z,88.01
2022-08-26T01:59:18.527Z,88.03
2022-08-26T02:04:29.503Z,88.08
2022-08-26T02:09:31.481Z,88.73
2022-08-26T02:14:36.133Z,88.67
2022-08-26T02:19:48.492Z,89.35
2022-08-26T02:24:59.543Z,88.93
2022-08-26T02:30:13.307Z,88.85
2022-08-26T02:35:20.231Z,89.10
2022-08-26T02:40:26.649Z,89.17
2022-08-26T02:45:29.086Z,89.34
2022-08-26T02:50:30.976Z,89.42
2022-08-26T02:55:32.739Z,89.10
2022-08-26T03:00:37.321Z,89.65
2022-08-26T03:05:40.429Z,89.25
2022-08-26T03:10:46.484Z,89.39
2022-08-26T03:15:49.882Z,89.44
2022-08-26T03:20:51.708Z,89.54
2022-08-26T03:25:53.835Z,89.60
2022-08-26T03:30:57.023Z,89.58
2022-08-26T03:35:58.700Z,89.22
2022-08-26T03:41:01.034Z,89.68
2022-08-26T03:46:11.801Z,89.82
2022-08-26T03:51:18.318Z,90.04
2022-08-26T03:56:20.625Z,90.10
2022-08-26T04:01:22.368Z,90.07
2022-08-26T04:06:35.687Z,90.28
2022-08-26T04:11:39.508Z,90.15
2022-08-26T04:16:43.428Z,91.03
2022-08-26T04:21:46.205Z,90.80
2022-08-26T04:26:48.050Z,90.54
2022-08-26T04:31:50.375Z,91.06
2022-08-26T04:36:57.816Z,91.47
2022-08-26T04:41:59.988Z,91.62
2022-08-26T04:47:04.691Z,90.92
2022-08-26T04:52:06.589Z,91.24
2022-08-26T04:57:09.456Z,91.13
2022-08-26T05:02:11.446Z,92.54
2022-08-26T05:07:13.077Z,93.31
2022-08-26T05:12:14.719Z,92.98
2022-08-26T05:17:18.120Z,92.45
2022-08-26T05:22:20.224Z,92.06
2022-08-26T05:27:22.116Z,91.88
2022-08-26T05:32:24.164Z,90.93
2022-08-26T05:37:26.088Z,89.55
2022-08-26T05:42:29.033Z,88.91
2022-08-26T05:47:30.993Z,88.42
2022-08-26T05:52:33.817Z,88.98
2022-08-26T05:57:40.406Z,88.63
2022-08-26T06:02:44.897Z,88.49
2022-08-26T06:08:09.104Z,88.20
2022-08-26T06:13:12.970Z,87.81
2022-08-26T06:18:16.925Z,87.81
2022-08-26T06:23:38.179Z,87.32
2022-08-26T06:28:45.463Z,86.77
2022-08-26T06:33:47.568Z,86.50
2022-08-26T06:38:50.397Z,86.26
2022-08-26T06:43:52.412Z,86.29
2022-08-26T06:48:54.656Z,86.04
2022-08-26T06:54:00.137Z,85.87
2022-08-26T06:59:02.684Z,86.45
2022-08-26T07:04:07.894Z,86.43
2022-08-26T07:09:12.843Z,84.30
2022-08-26T07:14:16.817Z,84.75
2022-08-26T07:19:30.225Z,84.53
2022-08-26T07:24:38.968Z,84.11
2022-08-26T07:29:42.711Z,83.97
2022-08-26T07:34:45.604Z,83.28
2022-08-26T07:39:47.382Z,84.08
2022-08-26T07:44:49.255Z,83.57
2022-08-26T07:49:52.673Z,82.23
2022-08-26T07:54:59.200Z,82.78
2022-08-26T08:00:01.333Z,81.83
2022-08-26T08:05:16.803Z,81.08
2022-08-26T08:10:25.150Z,81.81
2022-08-26T08:15:31.035Z,82.29
2022-08-26T08:20:34.609Z,81.30
2022-08-26T08:25:36.608Z,80.89
2022-08-26T08:30:39.718Z,79.98
2022-08-26T08:35:42.708Z,79.82
2022-08-26T08:40:45.740Z,79.95
2022-08-26T08:45:53.089Z,79.88
2022-08-26T08:51:30.048Z,79.13
2022-08-26T08:56:46.792Z,77.63
2022-08-26T09:01:52.559Z,77.29
2022-08-26T09:06:59.547Z,77.33
2022-08-26T09:12:02.440Z,77.50
2022-08-26T09:17:08.582Z,75.09
2022-08-26T09:22:11.324Z,75.27
2022-08-26T09:27:46.698Z,74.07
2022-08-26T09:33:02.313Z,71.32
2022-08-26T09:38:26.925Z,72.47
2022-08-26T09:43:29.733Z,73.32
2022-08-26T09:48:36.331Z,72.07
2022-08-26T09:53:52.262Z,72.71
2022-08-26T09:58:55.811Z,69.90
2022-08-26T10:04:06.898Z,69.16
2022-08-26T10:09:13.785Z,68.34
2022-08-26T10:14:25.193Z,70.24
2022-08-26T10:19:55.766Z,70.67
2022-08-26T10:25:02.676Z,69.85
2022-08-26T10:30:10.286Z,68.25
2022-08-26T10:35:15.593Z,66.61
2022-08-26T10:40:35.702Z,66.56
2022-08-26T10:45:43.867Z,69.05
2022-08-26T10:50:47.591Z,68.25
2022-08-26T10:56:18.694Z,65.44
2022-08-26T11:01:47.058Z,65.87
2022-08-26T11:07:32.690Z,64.20
2022-08-26T11:12:34.459Z,66.02
2022-08-26T11:17:46.301Z,64.48
2022-08-26T11:22:48.730Z,63.46
2022-08-26T11:27:52.482Z,61.12
2022-08-26T11:32:58.248Z,60.45
2022-08-26T11:38:14.594Z,59.09
2022-08-26T11:43:23.851Z,59.16
2022-08-26T11:48:35.139Z,60.42
2022-08-26T11:53:39.920Z,58.15
2022-08-26T11:58:44.145Z,56.58
2022-08-26T12:03:50.033Z,56.15
2022-08-26T12:08:55.479Z,56.90
2022-08-26T12:14:16.493Z,55.83
2022-08-26T12:19:32.768Z,55.71
2022-08-26T12:24:35.404Z,58.09
2022-08-26T12:29:37.238Z,56.20
2022-08-26T12:34:47.205Z,54.50
2022-08-26T12:39:49.330Z,56.10
2022-08-26T12:45:06.595Z,55.19
2022-08-26T12:50:11.292Z,54.86
2022-08-26T12:55:27.698Z,55.00
2022-08-26T13:00:36.042Z,53.72
2022-08-26T13:05:37.982Z,53.82
2022-08-26T13:10:47.333Z,54.49
2022-08-26T13:15:50.034Z,53.49
2022-08-26T13:20:52.651Z,53.51
2022-08-26T13:25:54.292Z,53.21
2022-08-26T13:30:56.192Z,52.95
2022-08-26T13:35:59.228Z,52.84
2022-08-26T13:41:02.606Z,53.17
2022-08-26T13:46:04.658Z,52.95
2022-08-26T13:51:08.200Z,52.60
2022-08-26T13:56:11.188Z,52.71
2022-08-26T14:01:13.914Z,51.19
2022-08-26T14:06:16.317Z,51.23
2022-08-26T14:11:19.530Z,52.11
2022-08-26T14:16:27.080Z,52.62
2022-08-26T14:21:32.198Z,50.87
2022-08-26T14:26:34.418Z,50.48
2022-08-26T14:31:36.510Z,50.31
2022-08-26T14:36:38.180Z,49.76
2022-08-26T14:41:53.789Z,49.40
2022-08-26T14:46:57.188Z,50.55
2022-08-26T14:51:59.080Z,48.78
2022-08-26T14:57:04.834Z,48.39
2022-08-26T15:02:08.712Z,48.48
2022-08-26T15:07:12.773Z,48.95
2022-08-26T15:12:14.544Z,50.50
2022-08-26T15:17:16.209Z,49.93
2022-08-26T15:22:18.564Z,50.01
2022-08-26T15:27:20.687Z,49.73
2022-08-26T15:32:22.639Z,50.12
2022-08-26T15:37:24.456Z,49.64
2022-08-26T15:42:26.433Z,51.62
2022-08-26T15:47:28.094Z,50.56
2022-08-26T15:52:30.208Z,51.29
2022-08-26T15:57:32.161Z,51.31
2022-08-26T16:02:34.920Z,51.64
2022-08-26T16:07:36.924Z,51.02
2022-08-26T16:12:38.784Z,52.62
2022-08-26T16:17:40.768Z,52.91
2022-08-26T16:22:43.276Z,53.05
2022-08-26T16:27:45.261Z,54.69
2022-08-26T16:32:47.678Z,55.77
2022-08-26T16:37:49.469Z,56.07
2022-08-26T16:42:51.674Z,55.59
2022-08-26T16:47:53.334Z,56.35
2022-08-26T16:52:55.755Z,56.26
2022-08-26T16:57:57.547Z,56.72
2022-08-26T17:03:00.862Z,56.85
2022-08-26T17:08:03.852Z,57.39
2022-08-26T17:13:05.605Z,58.06
2022-08-26T17:18:09.012Z,58.47
2022-08-26T17:23:10.835Z,59.37
2022-08-26T17:28:13.664Z,60.35
2022-08-26T17:33:17.171Z,61.35
2022-08-26T17:38:24.062Z,61.60
2022-08-26T17:43:27.220Z,62.83
2022-08-26T17:48:29.162Z,63.14
2022-08-26T17:53:31.063Z,63.99
2022-08-26T17:58:33.261Z,64.46
2022-08-26T18:03:36.526Z,64.13
2022-08-26T18:08:40.126Z,65.01
2022-08-26T18:13:47.279Z,65.13
2022-08-26T18:18:53.087Z,66.03
2022-08-26T18:23:55.241Z,66.01
2022-08-26T18:28:58.021Z,67.07
2022-08-26T18:34:01.347Z,67.29
2022-08-26T18:39:05.212Z,67.58
2022-08-26T18:44:13.297Z,68.13
2022-08-26T18:49:17.266Z,67.99
2022-08-26T18:59:28.421Z,69.06
2022-08-26T19:04:32.269Z,69.80
2022-08-26T19:09:34.401Z,69.78
2022-08-26T19:14:37.887Z,69.84
2022-08-26T19:19:39.756Z,70.18
2022-08-26T19:24:41.564Z,70.16
2022-08-26T19:29:43.257Z,70.35
2022-08-26T19:34:44.949Z,71.28
2022-08-26T19:39:47.749Z,71.76
2022-08-26T19:45:07.422Z,71.58
2022-08-26T19:50:14.476Z,72.33
2022-08-26T19:55:17.989Z,72.79
2022-08-26T20:00:25.892Z,72.86
2022-08-26T20:05:27.840Z,72.69
2022-08-26T20:10:29.767Z,72.75
2022-08-26T20:15:31.482Z,74.31
2022-08-26T20:20:51.464Z,76.48
2022-08-26T20:25:53.303Z,78.28
2022-08-26T20:30:55.401Z,77.15
2022-08-26T20:35:57.072Z,77.01
2022-08-26T20:40:59.007Z,77.41
2022-08-26T20:46:01.027Z,77.11
2022-08-26T20:51:03.943Z,76.35
2022-08-26T20:56:08.826Z,77.01
2022-08-26T21:01:18.301Z,77.20
2022-08-26T21:06:20.069Z,77.89
2022-08-26T21:11:22.359Z,78.12
2022-08-26T21:16:24.062Z,78.28
2022-08-26T21:21:27.511Z,78.54
2022-08-26T21:26:29.744Z,78.67
2022-08-26T21:31:32.225Z,78.67
2022-08-26T21:36:34.159Z,78.58
2022-08-26T21:41:36.298Z,78.85
2022-08-26T21:46:38.108Z,78.33
2022-08-26T21:51:43.481Z,78.78
2022-08-26T21:56:47.043Z,81.72
2022-08-26T22:01:49.159Z,81.33
2022-08-26T22:06:55.061Z,80.83
2022-08-26T22:11:57.485Z,80.67
2022-08-26T22:16:59.805Z,81.32
2022-08-26T22:22:02.553Z,81.15
2022-08-26T22:27:04.802Z,81.38
2022-08-26T22:32:06.759Z,81.40
2022-08-26T22:37:08.465Z,81.15
2022-08-26T22:42:11.902Z,81.01
2022-08-26T22:47:13.902Z,80.59
2022-08-26T22:52:15.778Z,80.61
2022-08-26T22:57:17.546Z,79.81
2022-08-26T23:02:19.905Z,79.65
2022-08-26T23:07:21.941Z,79.65
2022-08-26T23:12:23.589Z,79.52
2022-08-26T23:17:25.632Z,79.17
2022-08-26T23:22:27.901Z,79.65
2022-08-26T23:27:29.657Z,79.58
2022-08-26T23:32:31.622Z,79.56
2022-08-26T23:37:36.483Z,80.33
2022-08-26T23:42:41.038Z,80.31
2022-08-26T23:47:43.005Z,79.48
2022-08-26T23:53:08.100Z,79.36
2022-08-26T23:58:10.217Z,79.33
